KSGR

Sugar Land Regional Airport

Houston, Texas, USA
METAR KSGR 181453Z 08005KT 10SM BKN065 OVC085 01/M08 A3058 RMK AO2 SLP358 T00061083 53004
Observed Flight Rules
Jan-18 @ 14:53 UTC (32 minutes ago) Visual Flight Rules
Wind Visibility Clouds
80° at 5 knots 10 miles
  • Broken at 6,500' AGL
  • Overcast at 8,500' AGL
Temperatures Readings
Current 1°C / 34°F
Dewpoint -8°C / 18°F
Humidity 51%
Altimeter 30.58" Hg
Pressure 1035.8 hPa
Elevation 2
METAR KSGR 181453Z 08005KT 10SM BKN065 OVC085 01/M08 A3058 RMK AO2 SLP358 T00061083 53004
Observed Flight Rules
Jan-18 @ 14:53 UTC
(32 minutes ago)
VFR
Wind Visibility
80° at 5 knots 10 miles
Clouds
  • Broken at 6,500' AGL
  • Overcast at 8,500' AGL
Temperature Dewpoint
1°C / 34°F -8°C / 18°F
Humidity Altimeter Pressure
51% 30.58" Hg 1035.8 hPa